createdAt,value
2019-02-20T00:02:14.906Z,14.30
2019-02-20T00:04:44.974Z,14.07
2019-02-20T00:07:15.051Z,16.70
2019-02-20T00:09:45.180Z,18.53
2019-02-20T00:12:14.888Z,15.80
2019-02-20T00:14:44.430Z,14.33
2019-02-20T00:17:14.508Z,12.70
2019-02-20T00:19:44.135Z,17.20
2019-02-20T00:22:13.435Z,17.80
2019-02-20T00:24:43.097Z,15.03
2019-02-20T00:27:12.735Z,20.37
2019-02-20T00:29:41.998Z,17.97
2019-02-20T00:32:11.686Z,20.00
2019-02-20T00:34:41.355Z,19.17
2019-02-20T00:37:11.174Z,13.73
2019-02-20T00:39:40.457Z,15.20
2019-02-20T00:42:09.701Z,13.63
2019-02-20T00:45:10.655Z,24.27
2019-02-20T00:48:05.965Z,16.43
2019-02-20T00:50:59.841Z,16.43
2019-02-20T00:53:34.359Z,15.30
2019-02-20T00:56:04.012Z,15.60
2019-02-20T00:58:33.670Z,17.43
2019-02-20T01:01:03.663Z,17.13
2019-02-20T01:03:34.229Z,19.63
2019-02-20T01:06:05.038Z,20.70
2019-02-20T01:08:34.746Z,16.47
2019-02-20T01:11:04.773Z,16.10
2019-02-20T01:13:34.393Z,14.07
2019-02-20T01:16:03.644Z,18.57
2019-02-20T01:18:33.322Z,20.17
2019-02-20T01:21:03.077Z,18.77
2019-02-20T01:23:33.220Z,14.97
2019-02-20T01:26:02.878Z,17.60
2019-02-20T01:28:32.894Z,13.43
2019-02-20T01:31:02.586Z,11.63
2019-02-20T01:33:31.873Z,16.60
2019-02-20T01:36:01.130Z,11.53
2019-02-20T01:38:31.061Z,12.07
2019-02-20T01:41:01.092Z,15.33
2019-02-20T01:43:30.329Z,16.57
2019-02-20T01:46:00.342Z,11.30
2019-02-20T01:48:29.686Z,13.27
2019-02-20T01:51:04.964Z,17.87
2019-02-20T01:53:34.328Z,17.33
2019-02-20T01:56:04.010Z,13.70
2019-02-20T01:58:34.475Z,19.47
2019-02-20T02:01:03.727Z,15.40
2019-02-20T02:03:33.386Z,12.77
2019-02-20T02:06:03.050Z,17.20
2019-02-20T02:08:32.658Z,13.13
2019-02-20T02:11:01.878Z,19.20
2019-02-20T02:13:31.554Z,12.40
2019-02-20T02:16:00.799Z,17.83
2019-02-20T02:18:30.393Z,16.60
2019-02-20T02:20:59.675Z,21.17
2019-02-20T02:23:28.983Z,19.03
2019-02-20T02:25:58.925Z,18.10
2019-02-20T02:28:28.854Z,18.17
2019-02-20T02:30:58.110Z,15.37
2019-02-20T02:33:28.404Z,18.20
2019-02-20T02:35:57.969Z,18.43
2019-02-20T02:38:27.602Z,17.00
2019-02-20T02:40:57.577Z,19.80
2019-02-20T02:43:26.783Z,20.13
2019-02-20T02:45:56.595Z,19.93
2019-02-20T02:48:26.163Z,17.90
2019-02-20T02:50:55.396Z,18.47
2019-02-20T02:53:30.698Z,18.47
2019-02-20T02:55:56.419Z,22.87
2019-02-20T02:58:26.170Z,21.53
2019-02-20T03:00:55.708Z,23.97
2019-02-20T03:03:25.206Z,20.27
2019-02-20T03:05:54.869Z,21.13
2019-02-20T03:08:43.749Z,19.40
2019-02-20T03:11:32.486Z,20.80
2019-02-20T03:14:01.863Z,22.70
2019-02-20T03:16:31.444Z,20.53
2019-02-20T03:19:01.051Z,22.77
2019-02-20T03:21:30.419Z,23.40
2019-02-20T03:23:59.657Z,19.97
2019-02-20T03:26:29.935Z,21.50
2019-02-20T03:28:59.920Z,24.60
2019-02-20T03:31:30.387Z,21.93
2019-02-20T03:34:00.064Z,22.20
2019-02-20T03:36:29.355Z,24.47
2019-02-20T03:38:58.554Z,24.70
2019-02-20T03:41:28.189Z,18.60
2019-02-20T03:43:58.229Z,19.73
2019-02-20T03:46:28.367Z,20.20
2019-02-20T03:48:58.160Z,23.63
2019-02-20T03:51:27.899Z,23.63
2019-02-20T03:53:58.311Z,17.13
2019-02-20T03:56:28.063Z,19.43
2019-02-20T03:58:57.656Z,17.13
2019-02-20T04:01:27.273Z,24.90
2019-02-20T04:03:57.415Z,23.63
2019-02-20T04:06:26.659Z,23.57
2019-02-20T04:08:56.726Z,21.73
2019-02-20T04:11:26.334Z,17.47
2019-02-20T04:13:55.970Z,23.80
2019-02-20T04:16:25.371Z,22.13
2019-02-20T04:18:54.978Z,23.90
2019-02-20T04:21:24.745Z,18.13
2019-02-20T04:24:01.914Z,19.37
2019-02-20T04:26:26.418Z,20.03
2019-02-20T04:28:56.306Z,22.20
2019-02-20T04:31:26.728Z,21.03
2019-02-20T04:33:56.355Z,20.03
2019-02-20T04:36:26.263Z,19.60
2019-02-20T04:38:55.878Z,21.80
2019-02-20T04:41:25.895Z,17.87
2019-02-20T04:43:55.282Z,22.70
2019-02-20T04:46:25.063Z,21.30
2019-02-20T04:48:55.840Z,21.33
2019-02-20T04:51:25.391Z,21.73
2019-02-20T04:53:55.383Z,23.60
2019-02-20T04:56:25.002Z,20.50
2019-02-20T04:59:00.034Z,23.90
2019-02-20T05:01:29.822Z,21.97
2019-02-20T05:03:59.109Z,22.67
2019-02-20T05:06:28.325Z,25.57
2019-02-20T05:08:58.220Z,22.20
2019-02-20T05:11:27.516Z,26.20
2019-02-20T05:13:57.061Z,20.60
2019-02-20T05:16:26.377Z,23.13
2019-02-20T05:18:56.754Z,18.43
2019-02-20T05:21:26.838Z,27.67
2019-02-20T05:23:56.121Z,19.47
2019-02-20T05:26:26.423Z,22.40
2019-02-20T05:28:56.049Z,20.43
2019-02-20T05:31:25.648Z,19.60
2019-02-20T05:33:54.859Z,25.63
2019-02-20T05:36:24.852Z,20.60
2019-02-20T05:39:13.242Z,25.50
2019-02-20T05:41:42.486Z,25.77
2019-02-20T05:44:12.145Z,24.37
2019-02-20T05:46:42.404Z,24.73
2019-02-20T05:49:12.055Z,25.20
2019-02-20T05:51:42.128Z,29.13
2019-02-20T05:54:12.157Z,26.63
2019-02-20T05:56:41.418Z,27.30
2019-02-20T05:59:11.416Z,20.70
2019-02-20T06:01:41.454Z,28.60
2019-02-20T06:04:10.897Z,23.40
2019-02-20T06:06:40.269Z,25.70
2019-02-20T06:09:10.236Z,25.03
2019-02-20T06:11:39.637Z,25.90
2019-02-20T06:14:09.859Z,29.67
2019-02-20T06:16:39.931Z,30.40
2019-02-20T06:19:09.747Z,25.70
2019-02-20T06:21:38.994Z,29.47
2019-02-20T06:24:08.709Z,24.10
2019-02-20T06:26:38.160Z,27.03
2019-02-20T06:29:08.370Z,30.37
2019-02-20T06:31:37.616Z,29.17
2019-02-20T06:34:07.230Z,28.47
2019-02-20T06:36:36.858Z,29.57
2019-02-20T06:39:06.635Z,36.53
2019-02-20T06:41:39.443Z,28.33
2019-02-20T06:44:07.618Z,27.33
2019-02-20T06:46:37.208Z,27.30
2019-02-20T06:49:06.471Z,25.60
2019-02-20T06:51:35.785Z,27.50
2019-02-20T06:54:05.158Z,26.20
2019-02-20T06:56:34.621Z,27.20
2019-02-20T06:59:03.975Z,29.60
2019-02-20T07:01:33.582Z,28.03
2019-02-20T07:04:03.125Z,23.20
2019-02-20T07:06:45.655Z,26.33
2019-02-20T07:09:55.159Z,28.53
2019-02-20T07:13:05.218Z,22.53
2019-02-20T07:16:12.480Z,32.93
2019-02-20T07:18:52.178Z,26.87
2019-02-20T07:22:02.977Z,27.70
2019-02-20T07:25:12.957Z,24.33
2019-02-20T07:28:18.139Z,23.27
2019-02-20T07:30:48.249Z,29.20
2019-02-20T07:33:17.901Z,24.27
2019-02-20T07:35:47.831Z,26.47
2019-02-20T07:38:17.482Z,27.47
2019-02-20T07:40:46.724Z,20.30
2019-02-20T07:43:16.841Z,21.23
2019-02-20T07:45:46.049Z,27.47
2019-02-20T07:48:16.199Z,27.27
2019-02-20T07:50:46.141Z,22.40
2019-02-20T07:53:15.808Z,22.13
2019-02-20T07:55:45.067Z,21.63
2019-02-20T07:58:14.692Z,20.30
2019-02-20T08:00:43.898Z,26.77
2019-02-20T08:03:13.548Z,19.63
2019-02-20T08:05:43.923Z,24.80
2019-02-20T08:08:13.261Z,19.50
2019-02-20T08:10:42.921Z,22.47
2019-02-20T08:13:12.282Z,26.83
2019-02-20T08:15:42.691Z,20.73
2019-02-20T08:18:12.740Z,24.90
2019-02-20T08:20:42.939Z,20.47
2019-02-20T08:23:12.923Z,20.50
2019-02-20T08:25:42.907Z,25.13
2019-02-20T08:28:12.230Z,22.93
2019-02-20T08:30:42.368Z,25.03
2019-02-20T08:33:11.966Z,24.13
2019-02-20T08:35:42.236Z,25.63
2019-02-20T08:38:11.858Z,23.17
2019-02-20T08:40:41.235Z,21.30
2019-02-20T08:43:11.049Z,22.90
2019-02-20T08:45:40.656Z,24.13
2019-02-20T08:48:10.245Z,20.40
2019-02-20T08:50:40.036Z,27.43
2019-02-20T08:53:09.257Z,21.60
2019-02-20T08:55:39.756Z,22.77
2019-02-20T08:58:08.984Z,30.00
2019-02-20T09:00:38.621Z,26.20
2019-02-20T09:03:08.722Z,24.03
2019-02-20T09:05:38.652Z,26.10
2019-02-20T09:08:08.710Z,23.63
2019-02-20T09:10:38.742Z,25.10
2019-02-20T09:13:08.746Z,25.57
2019-02-20T09:15:38.423Z,26.57
2019-02-20T09:18:08.062Z,25.00
2019-02-20T09:20:37.323Z,28.20
2019-02-20T09:23:06.792Z,24.27
2019-02-20T09:25:41.560Z,26.33
2019-02-20T09:28:06.926Z,26.17
2019-02-20T09:30:36.913Z,25.03
2019-02-20T09:33:06.943Z,22.23
2019-02-20T09:35:36.174Z,26.90
2019-02-20T09:38:05.841Z,25.53
2019-02-20T09:40:36.642Z,25.53
2019-02-20T09:43:06.759Z,24.80
2019-02-20T09:45:42.137Z,23.63
2019-02-20T09:48:07.331Z,24.80
2019-02-20T09:50:55.721Z,22.37
2019-02-20T09:53:25.440Z,28.27
2019-02-20T09:55:55.078Z,27.27
2019-02-20T09:58:24.638Z,24.37
2019-02-20T10:00:54.336Z,24.73
2019-02-20T10:03:23.979Z,21.50
2019-02-20T10:05:53.624Z,28.03
2019-02-20T10:08:23.983Z,28.63
2019-02-20T10:10:53.595Z,26.67
2019-02-20T10:13:23.190Z,26.53
2019-02-20T10:15:52.730Z,22.67
2019-02-20T10:18:22.094Z,26.70
2019-02-20T10:20:52.160Z,29.47
2019-02-20T10:23:21.806Z,23.37
2019-02-20T10:26:00.339Z,29.83
2019-02-20T10:28:21.916Z,30.73
2019-02-20T10:30:51.510Z,25.17
2019-02-20T10:33:20.874Z,23.40
2019-02-20T10:35:50.278Z,27.90
2019-02-20T10:38:19.635Z,20.57
2019-02-20T10:40:49.238Z,23.00
2019-02-20T10:43:18.908Z,21.23
2019-02-20T10:45:48.899Z,22.43
2019-02-20T10:48:18.090Z,24.83
2019-02-20T10:50:47.634Z,22.90
2019-02-20T10:53:17.687Z,25.43
2019-02-20T10:55:46.924Z,21.70
2019-02-20T10:58:16.857Z,22.07
2019-02-20T11:00:46.350Z,20.20
2019-02-20T11:03:15.631Z,22.60
2019-02-20T11:05:45.816Z,25.00
2019-02-20T11:08:15.457Z,21.50
2019-02-20T11:10:45.127Z,19.97
2019-02-20T11:13:14.403Z,19.80
2019-02-20T11:15:44.175Z,19.27
2019-02-20T11:18:14.546Z,22.17
2019-02-20T11:20:48.471Z,21.23
2019-02-20T11:23:15.384Z,23.07
2019-02-20T11:25:44.671Z,21.93
2019-02-20T11:28:14.373Z,25.87
2019-02-20T11:30:44.322Z,18.60
2019-02-20T11:33:14.006Z,22.03
2019-02-20T11:35:43.380Z,25.77
2019-02-20T11:38:14.200Z,20.70
2019-02-20T11:40:43.581Z,22.17
2019-02-20T11:43:13.242Z,24.77
2019-02-20T11:45:43.251Z,19.77
2019-02-20T11:48:12.484Z,26.00
2019-02-20T11:50:41.827Z,18.57
2019-02-20T11:53:11.469Z,22.27
2019-02-20T11:55:41.147Z,22.57
2019-02-20T11:58:10.758Z,18.37
2019-02-20T12:00:41.844Z,23.30
2019-02-20T12:03:12.733Z,20.40
2019-02-20T12:05:43.338Z,20.37
2019-02-20T12:08:12.725Z,18.93
2019-02-20T12:10:42.347Z,20.27
2019-02-20T12:13:12.476Z,20.37
2019-02-20T12:15:42.543Z,19.20
2019-02-20T12:18:17.425Z,20.10
2019-02-20T12:20:44.096Z,22.07
2019-02-20T12:23:13.687Z,22.03
2019-02-20T12:25:43.356Z,25.50
2019-02-20T12:28:12.997Z,19.90
2019-02-20T12:30:43.463Z,17.90
2019-02-20T12:33:13.068Z,18.57
2019-02-20T12:35:42.441Z,20.30
2019-02-20T12:38:12.186Z,16.13
2019-02-20T12:40:41.505Z,17.70
2019-02-20T12:43:10.887Z,18.67
2019-02-20T12:45:40.911Z,17.10
2019-02-20T12:48:11.300Z,18.90
2019-02-20T12:50:41.082Z,20.63
2019-02-20T12:53:11.259Z,19.77
2019-02-20T12:55:40.937Z,20.30
2019-02-20T12:58:10.961Z,19.87
2019-02-20T13:00:40.724Z,17.40
2019-02-20T13:03:10.362Z,21.43
2019-02-20T13:05:39.641Z,16.93
2019-02-20T13:08:09.802Z,19.13
2019-02-20T13:10:39.433Z,19.10
2019-02-20T13:13:08.736Z,21.63
2019-02-20T13:15:38.787Z,17.57
2019-02-20T13:18:08.480Z,16.87
2019-02-20T13:20:38.201Z,17.33
2019-02-20T13:23:08.319Z,18.13
2019-02-20T13:25:38.550Z,16.80
2019-02-20T13:28:09.098Z,16.77
2019-02-20T13:30:38.751Z,18.00
2019-02-20T13:33:08.374Z,20.00
2019-02-20T13:35:38.085Z,19.17
2019-02-20T13:38:07.745Z,17.70
2019-02-20T13:40:37.392Z,16.20
2019-02-20T13:43:07.435Z,17.23
2019-02-20T13:45:37.037Z,19.97
2019-02-20T13:48:07.403Z,18.17
2019-02-20T13:50:37.220Z,18.00
2019-02-20T13:53:07.284Z,16.27
2019-02-20T13:55:36.962Z,16.93
2019-02-20T13:58:06.951Z,17.63
2019-02-20T14:00:36.618Z,15.20
2019-02-20T14:03:06.640Z,21.97
2019-02-20T14:05:36.956Z,16.20
2019-02-20T14:08:06.614Z,14.70
2019-02-20T14:10:36.545Z,14.43
2019-02-20T14:13:06.875Z,16.10
2019-02-20T14:15:36.240Z,16.87
2019-02-20T14:18:05.729Z,14.90
2019-02-20T14:20:35.140Z,13.30
2019-02-20T14:23:04.494Z,16.37
2019-02-20T14:25:36.309Z,13.73
2019-02-20T14:28:05.715Z,13.67
2019-02-20T14:30:35.343Z,14.20
2019-02-20T14:33:04.878Z,14.20
2019-02-20T14:35:34.138Z,23.77
2019-02-20T14:38:04.521Z,17.37
2019-02-20T14:40:34.101Z,14.20
2019-02-20T14:43:04.534Z,14.00
2019-02-20T14:45:34.173Z,14.33
2019-02-20T14:48:04.010Z,15.20
2019-02-20T14:50:33.657Z,14.70
2019-02-20T14:53:03.351Z,15.80
2019-02-20T14:55:33.300Z,14.30
2019-02-20T14:58:03.720Z,15.30
2019-02-20T15:00:33.071Z,13.00
2019-02-20T15:03:02.646Z,14.50
2019-02-20T15:05:32.577Z,13.60
2019-02-20T15:08:02.548Z,14.10
2019-02-20T15:10:31.933Z,11.93
2019-02-20T15:13:02.324Z,13.67
2019-02-20T15:15:32.380Z,12.73
2019-02-20T15:18:02.549Z,10.37
2019-02-20T15:20:31.962Z,11.53
2019-02-20T15:23:02.222Z,13.17
2019-02-20T15:25:31.917Z,11.90
2019-02-20T15:28:02.280Z,12.77
2019-02-20T15:30:33.027Z,10.27
2019-02-20T15:33:02.528Z,10.63
2019-02-20T15:35:32.612Z,16.60
2019-02-20T15:38:02.380Z,11.80
2019-02-20T15:40:32.234Z,11.40
2019-02-20T15:43:01.958Z,13.00
2019-02-20T15:45:32.637Z,11.43
2019-02-20T15:48:02.903Z,13.77
2019-02-20T15:50:32.154Z,10.13
2019-02-20T15:53:02.196Z,9.50
2019-02-20T15:55:31.958Z,13.20
2019-02-20T15:58:01.982Z,9.23
2019-02-20T16:00:31.550Z,12.13
2019-02-20T16:03:01.277Z,9.40
2019-02-20T16:05:31.120Z,11.97
2019-02-20T16:08:01.104Z,8.30
2019-02-20T16:10:30.999Z,8.27
2019-02-20T16:13:01.355Z,8.80
2019-02-20T16:15:31.019Z,10.07
2019-02-20T16:18:00.466Z,12.07
2019-02-20T16:20:30.510Z,8.60
2019-02-20T16:23:00.805Z,8.37
2019-02-20T16:25:30.466Z,9.47
2019-02-20T16:28:00.586Z,10.53
2019-02-20T16:30:30.283Z,7.87
2019-02-20T16:33:00.849Z,8.40
2019-02-20T16:35:34.088Z,11.10
2019-02-20T16:38:04.403Z,11.73
2019-02-20T16:40:34.503Z,12.20
2019-02-20T16:43:04.153Z,12.80
2019-02-20T16:45:52.883Z,7.40
2019-02-20T16:48:22.722Z,8.37
2019-02-20T16:50:52.335Z,7.93
2019-02-20T16:53:22.158Z,6.87
2019-02-20T16:55:51.487Z,10.30
2019-02-20T16:58:21.030Z,13.20
2019-02-20T17:00:50.615Z,10.17
2019-02-20T17:03:20.978Z,8.43
2019-02-20T17:05:50.888Z,12.23
2019-02-20T17:08:20.898Z,12.03
2019-02-20T17:10:50.691Z,11.20
2019-02-20T17:13:19.935Z,11.70
2019-02-20T17:15:49.389Z,10.20
2019-02-20T17:18:19.106Z,10.60
2019-02-20T17:20:48.545Z,10.80
2019-02-20T17:23:18.955Z,9.17
2019-02-20T17:25:48.233Z,8.80
2019-02-20T17:28:18.275Z,10.30
2019-02-20T17:30:47.627Z,9.10
2019-02-20T17:33:17.715Z,7.70
2019-02-20T17:35:47.373Z,7.77
2019-02-20T17:38:16.933Z,10.07
2019-02-20T17:40:46.821Z,10.93
2019-02-20T17:43:16.961Z,11.60
2019-02-20T17:45:46.322Z,6.93
2019-02-20T17:48:15.995Z,9.57
2019-02-20T17:50:45.805Z,15.83
2019-02-20T17:53:15.171Z,10.07
2019-02-20T17:55:44.770Z,12.70
2019-02-20T17:58:15.408Z,10.53
2019-02-20T18:00:46.446Z,6.90
2019-02-20T18:03:16.125Z,7.13
2019-02-20T18:05:46.323Z,9.60
2019-02-20T18:08:15.534Z,10.37
2019-02-20T18:10:45.316Z,10.93
2019-02-20T18:13:15.620Z,8.50
2019-02-20T18:15:45.766Z,6.30
2019-02-20T18:18:14.926Z,9.43
2019-02-20T18:20:44.966Z,6.80
2019-02-20T18:23:14.557Z,6.60
2019-02-20T18:25:43.695Z,8.77
2019-02-20T18:28:13.383Z,7.80
2019-02-20T18:30:43.201Z,8.27
2019-02-20T18:33:13.219Z,8.80
2019-02-20T18:35:43.087Z,9.53
2019-02-20T18:38:12.666Z,13.63
2019-02-20T18:40:41.919Z,9.50
2019-02-20T18:43:11.928Z,7.13
2019-02-20T18:46:00.481Z,6.57
2019-02-20T18:48:30.075Z,8.37
2019-02-20T18:51:00.031Z,9.17
2019-02-20T18:53:31.031Z,10.50
2019-02-20T18:56:01.344Z,9.10
2019-02-20T18:58:33.911Z,8.63
2019-02-20T19:01:02.017Z,9.07
2019-02-20T19:03:31.609Z,7.07
2019-02-20T19:06:01.312Z,6.00
2019-02-20T19:08:46.483Z,10.20
2019-02-20T19:11:39.127Z,8.57
2019-02-20T19:14:23.559Z,8.60
2019-02-20T19:17:36.488Z,8.23
2019-02-20T19:20:21.949Z,7.10
2019-02-20T19:23:26.032Z,6.67
2019-02-20T19:26:34.744Z,6.90
2019-02-20T19:29:38.511Z,7.17
2019-02-20T19:32:39.556Z,8.03
2019-02-20T19:35:40.374Z,7.17
2019-02-20T19:38:41.777Z,9.47
2019-02-20T19:41:48.496Z,7.33
2019-02-20T19:45:22.856Z,8.23
2019-02-20T19:48:42.708Z,9.10
2019-02-20T19:51:35.567Z,9.77
2019-02-20T19:54:42.401Z,6.50
2019-02-20T19:57:42.065Z,10.70
2019-02-20T20:00:44.624Z,7.40
2019-02-20T20:03:55.167Z,9.70
2019-02-20T20:06:57.731Z,6.87
2019-02-20T20:10:24.013Z,9.43
2019-02-20T20:13:21.817Z,9.77
2019-02-20T20:16:19.469Z,7.80
2019-02-20T20:19:30.361Z,11.43
2019-02-20T20:22:37.983Z,10.87
2019-02-20T20:25:29.460Z,9.70
2019-02-20T20:28:45.052Z,10.70
2019-02-20T20:31:42.003Z,9.83
2019-02-20T20:34:46.344Z,8.70
2019-02-20T20:38:02.900Z,9.93
2019-02-20T20:41:12.982Z,12.43
2019-02-20T20:44:27.645Z,10.07
2019-02-20T20:47:34.574Z,9.17
2019-02-20T20:50:28.102Z,12.13
2019-02-20T20:53:56.047Z,8.93
2019-02-20T20:57:14.158Z,12.43
2019-02-20T20:59:49.627Z,9.77
2019-02-20T21:02:30.126Z,12.93
2019-02-20T21:05:25.365Z,10.73
2019-02-20T21:08:34.416Z,16.50
2019-02-20T21:11:40.152Z,10.70
2019-02-20T21:15:12.145Z,14.00
2019-02-20T21:18:35.542Z,10.43
2019-02-20T21:21:35.491Z,12.43
2019-02-20T21:24:55.568Z,10.57
2019-02-20T21:28:00.591Z,12.70
2019-02-20T21:31:10.588Z,11.73
2019-02-20T21:34:29.842Z,11.40
2019-02-20T21:37:32.992Z,10.53
2019-02-20T21:40:36.486Z,11.03
2019-02-20T21:44:11.201Z,13.67
2019-02-20T21:47:13.745Z,11.83
2019-02-20T21:50:27.233Z,14.33
2019-02-20T21:53:40.469Z,16.90
2019-02-20T21:57:09.374Z,15.87
2019-02-20T22:00:04.393Z,12.20
2019-02-20T22:02:46.465Z,11.93
2019-02-20T22:05:49.996Z,12.40
2019-02-20T22:08:53.614Z,12.27
2019-02-20T22:12:10.243Z,13.80
2019-02-20T22:15:24.132Z,13.20
2019-02-20T22:18:18.267Z,12.33
2019-02-20T22:21:37.890Z,16.27
2019-02-20T22:25:09.786Z,11.87
2019-02-20T22:27:59.347Z,12.10
2019-02-20T22:31:00.286Z,15.93
2019-02-20T22:34:20.166Z,12.90
2019-02-20T22:37:10.216Z,13.10
2019-02-20T22:40:10.558Z,15.20
2019-02-20T22:43:07.792Z,14.30
2019-02-20T22:46:19.881Z,13.80
2019-02-20T22:49:33.307Z,14.33
2019-02-20T22:52:27.636Z,15.07
2019-02-20T22:55:33.095Z,14.47
2019-02-20T22:58:33.401Z,19.00
2019-02-20T23:01:42.774Z,15.30
2019-02-20T23:04:53.852Z,15.67
2019-02-20T23:07:38.778Z,14.13
2019-02-20T23:10:46.057Z,15.73
2019-02-20T23:13:59.803Z,13.20
2019-02-20T23:16:29.732Z,17.43
2019-02-20T23:18:59.110Z,15.23
2019-02-20T23:21:29.143Z,21.50
2019-02-20T23:23:59.141Z,15.20
2019-02-20T23:26:29.055Z,14.37
2019-02-20T23:28:58.699Z,18.77
2019-02-20T23:31:28.452Z,14.90
2019-02-20T23:33:58.143Z,14.90
2019-02-20T23:36:27.924Z,17.77
2019-02-20T23:38:57.443Z,15.87
2019-02-20T23:41:27.490Z,14.97
2019-02-20T23:43:58.054Z,14.27
2019-02-20T23:46:27.274Z,15.93
2019-02-20T23:48:57.013Z,15.03
2019-02-20T23:51:26.290Z,15.27
2019-02-20T23:53:55.976Z,12.87
2019-02-20T23:56:25.916Z,16.80
2019-02-20T23:58:55.283Z,16.07
